sensor_id;sensor_type;location;lat;lon;timestamp;temperature;humidity
20650;DHT22;10484;48.736;9.332;2023-04-25T00:01:40;10.00;1.00
20650;DHT22;10484;48.736;9.332;2023-04-25T00:04:05;10.00;1.00
20650;DHT22;10484;48.736;9.332;2023-04-25T00:06:32;10.00;1.00
20650;DHT22;10484;48.736;9.332;2023-04-25T00:08:58;9.90;1.00
20650;DHT22;10484;48.736;9.332;2023-04-25T00:11:23;9.90;1.00
20650;DHT22;10484;48.736;9.332;2023-04-25T00:13:49;9.90;1.00
20650;DHT22;10484;48.736;9.332;2023-04-25T00:16:19;9.90;1.00
20650;DHT22;10484;48.736;9.332;2023-04-25T00:18:45;9.90;1.00
20650;DHT22;10484;48.736;9.332;2023-04-25T00:21:17;9.90;1.00
20650;DHT22;10484;48.736;9.332;2023-04-25T00:23:43;9.90;1.00
20650;DHT22;10484;48.736;9.332;2023-04-25T00:26:09;9.90;1.00
20650;DHT22;10484;48.736;9.332;2023-04-25T00:28:34;10.00;1.00
20650;DHT22;10484;48.736;9.332;2023-04-25T00:31:00;10.00;1.00
20650;DHT22;10484;48.736;9.332;2023-04-25T00:33:25;10.00;1.00
20650;DHT22;10484;48.736;9.332;2023-04-25T00:35:51;10.00;1.00
20650;DHT22;10484;48.736;9.332;2023-04-25T00:38:16;9.90;1.00
20650;DHT22;10484;48.736;9.332;2023-04-25T00:40:42;9.90;1.00
20650;DHT22;10484;48.736;9.332;2023-04-25T00:43:09;9.90;1.00
20650;DHT22;10484;48.736;9.332;2023-04-25T00:45:38;9.90;1.00
20650;DHT22;10484;48.736;9.332;2023-04-25T00:48:05;9.90;1.00
20650;DHT22;10484;48.736;9.332;2023-04-25T00:50:33;9.90;1.00
20650;DHT22;10484;48.736;9.332;2023-04-25T00:52:59;9.90;1.00
20650;DHT22;10484;48.736;9.332;2023-04-25T00:55:25;9.90;1.00
20650;DHT22;10484;48.736;9.332;2023-04-25T00:57:51;9.90;1.00
20650;DHT22;10484;48.736;9.332;2023-04-25T01:00:17;9.80;1.00
20650;DHT22;10484;48.736;9.332;2023-04-25T01:02:43;9.80;1.00
20650;DHT22;10484;48.736;9.332;2023-04-25T01:05:10;9.80;1.00
20650;DHT22;10484;48.736;9.332;2023-04-25T01:07:36;9.80;1.00
20650;DHT22;10484;48.736;9.332;2023-04-25T01:10:02;9.80;1.00
20650;DHT22;10484;48.736;9.332;2023-04-25T01:12:28;9.80;1.00
20650;DHT22;10484;48.736;9.332;2023-04-25T01:14:54;9.80;1.00
20650;DHT22;10484;48.736;9.332;2023-04-25T01:17:19;9.80;1.00
20650;DHT22;10484;48.736;9.332;2023-04-25T01:19:45;9.80;1.00
20650;DHT22;10484;48.736;9.332;2023-04-25T01:22:15;9.80;1.00
20650;DHT22;10484;48.736;9.332;2023-04-25T01:24:40;9.80;1.00
20650;DHT22;10484;48.736;9.332;2023-04-25T01:27:07;9.80;1.00
20650;DHT22;10484;48.736;9.332;2023-04-25T01:29:33;9.80;1.00
20650;DHT22;10484;48.736;9.332;2023-04-25T01:32:00;9.80;1.00
20650;DHT22;10484;48.736;9.332;2023-04-25T01:34:26;9.80;1.00
20650;DHT22;10484;48.736;9.332;2023-04-25T01:36:53;9.80;1.00
20650;DHT22;10484;48.736;9.332;2023-04-25T01:39:19;9.70;1.00
20650;DHT22;10484;48.736;9.332;2023-04-25T01:41:46;9.60;1.00
20650;DHT22;10484;48.736;9.332;2023-04-25T01:44:12;9.60;1.00
20650;DHT22;10484;48.736;9.332;2023-04-25T01:46:37;9.60;1.00
20650;DHT22;10484;48.736;9.332;2023-04-25T01:49:03;9.70;1.00
20650;DHT22;10484;48.736;9.332;2023-04-25T01:51:29;9.70;1.00
20650;DHT22;10484;48.736;9.332;2023-04-25T01:53:55;9.70;1.00
20650;DHT22;10484;48.736;9.332;2023-04-25T01:56:21;9.70;1.00
20650;DHT22;10484;48.736;9.332;2023-04-25T01:58:47;9.70;1.00
20650;DHT22;10484;48.736;9.332;2023-04-25T02:01:12;9.70;1.00
20650;DHT22;10484;48.736;9.332;2023-04-25T02:03:38;9.60;1.00
20650;DHT22;10484;48.736;9.332;2023-04-25T02:06:04;9.70;1.00
20650;DHT22;10484;48.736;9.332;2023-04-25T02:08:29;9.60;1.00
20650;DHT22;10484;48.736;9.332;2023-04-25T02:10:56;9.60;1.00
20650;DHT22;10484;48.736;9.332;2023-04-25T02:13:22;9.60;1.00
20650;DHT22;10484;48.736;9.332;2023-04-25T02:15:48;9.60;1.00
20650;DHT22;10484;48.736;9.332;2023-04-25T02:18:13;9.60;1.00
20650;DHT22;10484;48.736;9.332;2023-04-25T02:20:41;9.60;1.00
20650;DHT22;10484;48.736;9.332;2023-04-25T02:23:07;9.60;1.00
20650;DHT22;10484;48.736;9.332;2023-04-25T02:25:32;9.60;1.00
20650;DHT22;10484;48.736;9.332;2023-04-25T02:27:58;9.60;1.00
20650;DHT22;10484;48.736;9.332;2023-04-25T02:30:24;9.50;1.00
20650;DHT22;10484;48.736;9.332;2023-04-25T02:32:49;9.50;1.00
20650;DHT22;10484;48.736;9.332;2023-04-25T02:35:15;9.50;1.00
20650;DHT22;10484;48.736;9.332;2023-04-25T02:37:41;9.50;1.00
20650;DHT22;10484;48.736;9.332;2023-04-25T02:40:07;9.50;1.00
20650;DHT22;10484;48.736;9.332;2023-04-25T02:42:33;9.50;1.00
20650;DHT22;10484;48.736;9.332;2023-04-25T02:44:59;9.50;1.00
20650;DHT22;10484;48.736;9.332;2023-04-25T02:47:25;9.50;1.00
20650;DHT22;10484;48.736;9.332;2023-04-25T02:49:50;9.50;1.00
20650;DHT22;10484;48.736;9.332;2023-04-25T02:52:16;9.50;1.00
20650;DHT22;10484;48.736;9.332;2023-04-25T02:54:42;9.40;1.00
20650;DHT22;10484;48.736;9.332;2023-04-25T02:57:07;9.40;1.00
20650;DHT22;10484;48.736;9.332;2023-04-25T02:59:33;9.40;1.00
20650;DHT22;10484;48.736;9.332;2023-04-25T03:01:59;9.40;1.00
20650;DHT22;10484;48.736;9.332;2023-04-25T03:04:24;9.40;1.00
20650;DHT22;10484;48.736;9.332;2023-04-25T03:06:51;9.40;1.00
20650;DHT22;10484;48.736;9.332;2023-04-25T03:09:16;9.30;1.00
20650;DHT22;10484;48.736;9.332;2023-04-25T03:11:43;9.30;1.00
20650;DHT22;10484;48.736;9.332;2023-04-25T03:14:09;9.30;1.00
20650;DHT22;10484;48.736;9.332;2023-04-25T03:16:34;9.30;1.00
20650;DHT22;10484;48.736;9.332;2023-04-25T03:19:00;9.30;1.00
20650;DHT22;10484;48.736;9.332;2023-04-25T03:21:25;9.20;1.00
20650;DHT22;10484;48.736;9.332;2023-04-25T03:23:51;9.20;1.00
20650;DHT22;10484;48.736;9.332;2023-04-25T03:26:17;9.20;1.00
20650;DHT22;10484;48.736;9.332;2023-04-25T03:28:42;9.20;1.00
20650;DHT22;10484;48.736;9.332;2023-04-25T03:31:08;9.20;1.00
20650;DHT22;10484;48.736;9.332;2023-04-25T03:33:34;9.20;1.00
20650;DHT22;10484;48.736;9.332;2023-04-25T03:35:59;9.20;1.00
20650;DHT22;10484;48.736;9.332;2023-04-25T03:38:25;9.20;1.00
20650;DHT22;10484;48.736;9.332;2023-04-25T03:40:51;9.20;1.00
20650;DHT22;10484;48.736;9.332;2023-04-25T03:43:17;9.20;1.00
20650;DHT22;10484;48.736;9.332;2023-04-25T03:45:42;9.20;1.00
20650;DHT22;10484;48.736;9.332;2023-04-25T03:48:08;9.10;1.00
20650;DHT22;10484;48.736;9.332;2023-04-25T03:50:34;9.20;1.00
20650;DHT22;10484;48.736;9.332;2023-04-25T03:52:59;9.20;1.00
20650;DHT22;10484;48.736;9.332;2023-04-25T03:55:25;9.20;1.00
20650;DHT22;10484;48.736;9.332;2023-04-25T03:57:50;9.10;1.00
20650;DHT22;10484;48.736;9.332;2023-04-25T04:00:16;9.10;1.00
20650;DHT22;10484;48.736;9.332;2023-04-25T04:02:42;9.10;1.00
20650;DHT22;10484;48.736;9.332;2023-04-25T04:05:08;9.10;1.00
20650;DHT22;10484;48.736;9.332;2023-04-25T04:07:34;9.10;1.00
20650;DHT22;10484;48.736;9.332;2023-04-25T04:10:08;9.10;1.00
20650;DHT22;10484;48.736;9.332;2023-04-25T04:12:34;9.10;1.00
20650;DHT22;10484;48.736;9.332;2023-04-25T04:14:59;9.10;1.00
20650;DHT22;10484;48.736;9.332;2023-04-25T04:17:25;9.10;1.00
20650;DHT22;10484;48.736;9.332;2023-04-25T04:19:51;9.10;1.00
20650;DHT22;10484;48.736;9.332;2023-04-25T04:22:16;9.00;1.00
20650;DHT22;10484;48.736;9.332;2023-04-25T04:24:42;9.00;1.00
20650;DHT22;10484;48.736;9.332;2023-04-25T04:27:09;9.00;1.00
20650;DHT22;10484;48.736;9.332;2023-04-25T04:29:35;9.00;1.00
20650;DHT22;10484;48.736;9.332;2023-04-25T04:32:02;9.00;1.00
20650;DHT22;10484;48.736;9.332;2023-04-25T04:34:28;9.00;1.00
20650;DHT22;10484;48.736;9.332;2023-04-25T04:36:54;9.00;1.00
20650;DHT22;10484;48.736;9.332;2023-04-25T04:39:20;8.90;1.00
20650;DHT22;10484;48.736;9.332;2023-04-25T04:41:46;8.90;1.00
20650;DHT22;10484;48.736;9.332;2023-04-25T04:44:12;8.90;1.00
20650;DHT22;10484;48.736;9.332;2023-04-25T04:46:37;8.90;1.00
20650;DHT22;10484;48.736;9.332;2023-04-25T04:49:06;8.90;1.00
20650;DHT22;10484;48.736;9.332;2023-04-25T04:51:31;8.90;1.00
20650;DHT22;10484;48.736;9.332;2023-04-25T04:53:58;8.90;1.00
20650;DHT22;10484;48.736;9.332;2023-04-25T04:56:30;8.90;1.00
20650;DHT22;10484;48.736;9.332;2023-04-25T04:58:57;8.90;1.00
20650;DHT22;10484;48.736;9.332;2023-04-25T05:01:23;8.90;1.00
20650;DHT22;10484;48.736;9.332;2023-04-25T05:03:49;8.90;1.00
20650;DHT22;10484;48.736;9.332;2023-04-25T05:06:16;8.90;1.00
20650;DHT22;10484;48.736;9.332;2023-04-25T05:08:41;9.00;1.00
20650;DHT22;10484;48.736;9.332;2023-04-25T05:11:07;9.00;1.00
20650;DHT22;10484;48.736;9.332;2023-04-25T05:13:33;9.00;1.00
20650;DHT22;10484;48.736;9.332;2023-04-25T05:15:58;9.00;1.00
20650;DHT22;10484;48.736;9.332;2023-04-25T05:18:24;9.00;1.00
20650;DHT22;10484;48.736;9.332;2023-04-25T05:20:49;9.00;1.00
20650;DHT22;10484;48.736;9.332;2023-04-25T05:23:15;9.00;1.00
20650;DHT22;10484;48.736;9.332;2023-04-25T05:25:41;9.00;1.00
20650;DHT22;10484;48.736;9.332;2023-04-25T05:28:07;9.00;1.00
20650;DHT22;10484;48.736;9.332;2023-04-25T05:30:34;9.00;1.00
20650;DHT22;10484;48.736;9.332;2023-04-25T05:32:59;9.00;1.00
20650;DHT22;10484;48.736;9.332;2023-04-25T05:35:25;9.00;1.00
20650;DHT22;10484;48.736;9.332;2023-04-25T05:37:51;9.00;1.00
20650;DHT22;10484;48.736;9.332;2023-04-25T05:40:17;9.10;1.00
20650;DHT22;10484;48.736;9.332;2023-04-25T05:42:42;9.00;1.00
20650;DHT22;10484;48.736;9.332;2023-04-25T05:45:08;9.00;1.00
20650;DHT22;10484;48.736;9.332;2023-04-25T05:47:34;9.00;1.00
20650;DHT22;10484;48.736;9.332;2023-04-25T05:49:59;9.10;1.00
20650;DHT22;10484;48.736;9.332;2023-04-25T05:52:25;9.10;1.00
20650;DHT22;10484;48.736;9.332;2023-04-25T05:54:50;9.20;1.00
20650;DHT22;10484;48.736;9.332;2023-04-25T05:57:26;9.20;1.00
20650;DHT22;10484;48.736;9.332;2023-04-25T05:59:52;9.20;1.00
20650;DHT22;10484;48.736;9.332;2023-04-25T06:02:19;9.30;1.00
20650;DHT22;10484;48.736;9.332;2023-04-25T06:04:45;9.30;1.00
20650;DHT22;10484;48.736;9.332;2023-04-25T06:07:11;9.30;1.00
20650;DHT22;10484;48.736;9.332;2023-04-25T06:09:36;9.30;1.00
20650;DHT22;10484;48.736;9.332;2023-04-25T06:12:04;9.30;1.00
20650;DHT22;10484;48.736;9.332;2023-04-25T06:14:30;9.30;1.00
20650;DHT22;10484;48.736;9.332;2023-04-25T06:16:55;9.30;1.00
20650;DHT22;10484;48.736;9.332;2023-04-25T06:19:21;9.30;1.00
20650;DHT22;10484;48.736;9.332;2023-04-25T06:21:47;9.30;1.00
20650;DHT22;10484;48.736;9.332;2023-04-25T06:24:12;9.20;1.00
20650;DHT22;10484;48.736;9.332;2023-04-25T06:26:38;9.20;1.00
20650;DHT22;10484;48.736;9.332;2023-04-25T06:29:04;9.20;1.00
20650;DHT22;10484;48.736;9.332;2023-04-25T06:31:29;9.30;1.00
20650;DHT22;10484;48.736;9.332;2023-04-25T06:33:57;9.30;1.00
20650;DHT22;10484;48.736;9.332;2023-04-25T06:36:23;9.20;1.00
20650;DHT22;10484;48.736;9.332;2023-04-25T06:38:53;9.20;1.00
20650;DHT22;10484;48.736;9.332;2023-04-25T06:41:19;9.20;1.00
20650;DHT22;10484;48.736;9.332;2023-04-25T06:43:45;9.20;1.00
20650;DHT22;10484;48.736;9.332;2023-04-25T06:46:11;9.20;1.00
20650;DHT22;10484;48.736;9.332;2023-04-25T06:48:37;9.30;1.00
20650;DHT22;10484;48.736;9.332;2023-04-25T06:51:03;9.30;1.00
20650;DHT22;10484;48.736;9.332;2023-04-25T06:53:29;9.30;1.00
20650;DHT22;10484;48.736;9.332;2023-04-25T06:55:54;9.30;1.00
20650;DHT22;10484;48.736;9.332;2023-04-25T06:58:20;9.40;1.00
20650;DHT22;10484;48.736;9.332;2023-04-25T07:00:45;9.40;1.00
20650;DHT22;10484;48.736;9.332;2023-04-25T07:03:11;9.50;1.00
20650;DHT22;10484;48.736;9.332;2023-04-25T07:05:37;9.50;1.00
20650;DHT22;10484;48.736;9.332;2023-04-25T07:08:02;9.50;1.00
20650;DHT22;10484;48.736;9.332;2023-04-25T07:10:28;9.50;1.00
20650;DHT22;10484;48.736;9.332;2023-04-25T07:12:54;9.50;1.00
20650;DHT22;10484;48.736;9.332;2023-04-25T07:15:19;9.50;1.00
20650;DHT22;10484;48.736;9.332;2023-04-25T07:17:45;9.50;1.00
20650;DHT22;10484;48.736;9.332;2023-04-25T07:20:10;9.50;1.00
20650;DHT22;10484;48.736;9.332;2023-04-25T07:22:36;9.50;1.00
20650;DHT22;10484;48.736;9.332;2023-04-25T07:25:02;9.50;1.00
20650;DHT22;10484;48.736;9.332;2023-04-25T07:27:30;9.50;1.00
20650;DHT22;10484;48.736;9.332;2023-04-25T07:29:55;9.50;1.00
20650;DHT22;10484;48.736;9.332;2023-04-25T07:32:21;9.50;1.00
20650;DHT22;10484;48.736;9.332;2023-04-25T07:34:47;9.50;1.00
20650;DHT22;10484;48.736;9.332;2023-04-25T07:37:12;9.60;1.00
20650;DHT22;10484;48.736;9.332;2023-04-25T07:39:39;9.60;1.00
20650;DHT22;10484;48.736;9.332;2023-04-25T07:42:05;9.60;1.00
20650;DHT22;10484;48.736;9.332;2023-04-25T07:44:33;9.60;1.00
20650;DHT22;10484;48.736;9.332;2023-04-25T07:47:04;9.70;1.00
20650;DHT22;10484;48.736;9.332;2023-04-25T07:49:32;9.70;1.00
20650;DHT22;10484;48.736;9.332;2023-04-25T07:51:59;9.60;1.00
20650;DHT22;10484;48.736;9.332;2023-04-25T07:54:24;9.60;1.00
20650;DHT22;10484;48.736;9.332;2023-04-25T07:56:50;9.60;1.00
20650;DHT22;10484;48.736;9.332;2023-04-25T07:59:16;9.60;1.00
20650;DHT22;10484;48.736;9.332;2023-04-25T08:01:41;9.60;1.00
20650;DHT22;10484;48.736;9.332;2023-04-25T08:04:07;9.60;1.00
20650;DHT22;10484;48.736;9.332;2023-04-25T08:06:32;9.60;1.00
20650;DHT22;10484;48.736;9.332;2023-04-25T08:08:58;9.60;1.00
20650;DHT22;10484;48.736;9.332;2023-04-25T08:11:24;9.60;1.00
20650;DHT22;10484;48.736;9.332;2023-04-25T08:13:50;9.60;1.00
20650;DHT22;10484;48.736;9.332;2023-04-25T08:16:16;9.60;1.00
20650;DHT22;10484;48.736;9.332;2023-04-25T08:18:41;9.60;1.00
20650;DHT22;10484;48.736;9.332;2023-04-25T08:21:07;9.60;1.00
20650;DHT22;10484;48.736;9.332;2023-04-25T08:23:34;9.60;1.00
20650;DHT22;10484;48.736;9.332;2023-04-25T08:25:59;9.60;1.00
20650;DHT22;10484;48.736;9.332;2023-04-25T08:28:25;9.60;1.00
20650;DHT22;10484;48.736;9.332;2023-04-25T08:30:51;9.60;1.00
20650;DHT22;10484;48.736;9.332;2023-04-25T08:33:16;9.60;1.00
20650;DHT22;10484;48.736;9.332;2023-04-25T08:35:42;9.60;1.00
20650;DHT22;10484;48.736;9.332;2023-04-25T08:38:08;9.60;1.00
20650;DHT22;10484;48.736;9.332;2023-04-25T08:40:38;9.60;1.00
20650;DHT22;10484;48.736;9.332;2023-04-25T08:43:08;9.50;1.00
20650;DHT22;10484;48.736;9.332;2023-04-25T08:45:41;9.50;1.00
20650;DHT22;10484;48.736;9.332;2023-04-25T08:48:12;9.50;1.00
20650;DHT22;10484;48.736;9.332;2023-04-25T08:50:49;9.50;1.00
20650;DHT22;10484;48.736;9.332;2023-04-25T08:53:16;9.50;1.00
20650;DHT22;10484;48.736;9.332;2023-04-25T08:55:45;9.50;1.00
20650;DHT22;10484;48.736;9.332;2023-04-25T08:58:11;9.50;1.00
20650;DHT22;10484;48.736;9.332;2023-04-25T09:00:38;9.50;1.00
20650;DHT22;10484;48.736;9.332;2023-04-25T09:03:04;9.50;1.00
20650;DHT22;10484;48.736;9.332;2023-04-25T09:05:31;9.50;1.00
20650;DHT22;10484;48.736;9.332;2023-04-25T09:07:57;9.50;1.00
20650;DHT22;10484;48.736;9.332;2023-04-25T09:10:23;9.50;1.00
20650;DHT22;10484;48.736;9.332;2023-04-25T09:13:12;9.50;1.00
20650;DHT22;10484;48.736;9.332;2023-04-25T09:15:51;9.50;1.00
20650;DHT22;10484;48.736;9.332;2023-04-25T09:18:27;9.50;1.00
20650;DHT22;10484;48.736;9.332;2023-04-25T09:21:07;9.60;1.00
20650;DHT22;10484;48.736;9.332;2023-04-25T09:23:40;9.60;1.00
20650;DHT22;10484;48.736;9.332;2023-04-25T09:26:07;9.60;1.00
20650;DHT22;10484;48.736;9.332;2023-04-25T09:28:34;9.60;1.00
20650;DHT22;10484;48.736;9.332;2023-04-25T09:31:00;9.60;1.00
20650;DHT22;10484;48.736;9.332;2023-04-25T09:33:30;9.60;1.00
20650;DHT22;10484;48.736;9.332;2023-04-25T09:36:03;9.60;1.00
20650;DHT22;10484;48.736;9.332;2023-04-25T09:38:30;9.60;1.00
20650;DHT22;10484;48.736;9.332;2023-04-25T09:40:56;9.70;1.00
20650;DHT22;10484;48.736;9.332;2023-04-25T09:43:23;9.70;1.00
20650;DHT22;10484;48.736;9.332;2023-04-25T09:45:50;9.70;1.00
20650;DHT22;10484;48.736;9.332;2023-04-25T09:48:21;9.70;1.00
20650;DHT22;10484;48.736;9.332;2023-04-25T09:51:09;9.60;1.00
20650;DHT22;10484;48.736;9.332;2023-04-25T09:53:42;9.60;1.00
20650;DHT22;10484;48.736;9.332;2023-04-25T09:56:10;9.60;1.00
20650;DHT22;10484;48.736;9.332;2023-04-25T09:58:38;9.60;1.00
20650;DHT22;10484;48.736;9.332;2023-04-25T10:01:05;9.60;1.00
20650;DHT22;10484;48.736;9.332;2023-04-25T10:03:33;9.50;1.00
20650;DHT22;10484;48.736;9.332;2023-04-25T10:06:01;9.50;1.00
20650;DHT22;10484;48.736;9.332;2023-04-25T10:08:32;9.50;1.00
20650;DHT22;10484;48.736;9.332;2023-04-25T10:11:05;9.50;1.00
20650;DHT22;10484;48.736;9.332;2023-04-25T10:13:32;9.50;1.00
20650;DHT22;10484;48.736;9.332;2023-04-25T10:15:59;9.50;1.00
20650;DHT22;10484;48.736;9.332;2023-04-25T10:18:26;9.40;1.00
20650;DHT22;10484;48.736;9.332;2023-04-25T10:21:04;9.40;1.00
20650;DHT22;10484;48.736;9.332;2023-04-25T10:23:31;9.40;1.00
20650;DHT22;10484;48.736;9.332;2023-04-25T10:25:57;9.40;1.00
20650;DHT22;10484;48.736;9.332;2023-04-25T10:28:24;9.30;1.00
20650;DHT22;10484;48.736;9.332;2023-04-25T10:31:02;9.30;1.00
20650;DHT22;10484;48.736;9.332;2023-04-25T10:33:39;9.30;1.00
20650;DHT22;10484;48.736;9.332;2023-04-25T10:36:15;9.20;1.00
20650;DHT22;10484;48.736;9.332;2023-04-25T10:38:43;9.30;1.00
20650;DHT22;10484;48.736;9.332;2023-04-25T10:41:10;9.20;1.00
20650;DHT22;10484;48.736;9.332;2023-04-25T10:43:41;9.20;1.00
20650;DHT22;10484;48.736;9.332;2023-04-25T10:46:23;9.20;1.00
20650;DHT22;10484;48.736;9.332;2023-04-25T10:49:01;9.20;1.00
20650;DHT22;10484;48.736;9.332;2023-04-25T10:51:35;9.20;1.00
20650;DHT22;10484;48.736;9.332;2023-04-25T10:54:06;9.20;1.00
20650;DHT22;10484;48.736;9.332;2023-04-25T10:56:33;9.20;1.00
20650;DHT22;10484;48.736;9.332;2023-04-25T10:59:08;9.20;1.00
20650;DHT22;10484;48.736;9.332;2023-04-25T11:04:04;9.20;1.00
20650;DHT22;10484;48.736;9.332;2023-04-25T11:09:23;9.20;1.00
20650;DHT22;10484;48.736;9.332;2023-04-25T11:11:57;9.20;1.00
20650;DHT22;10484;48.736;9.332;2023-04-25T11:14:24;9.10;1.00
20650;DHT22;10484;48.736;9.332;2023-04-25T11:16:57;9.10;1.00
20650;DHT22;10484;48.736;9.332;2023-04-25T11:19:24;9.10;1.00
20650;DHT22;10484;48.736;9.332;2023-04-25T11:21:50;9.10;1.00
20650;DHT22;10484;48.736;9.332;2023-04-25T11:24:16;9.10;1.00
20650;DHT22;10484;48.736;9.332;2023-04-25T11:26:43;9.10;1.00
20650;DHT22;10484;48.736;9.332;2023-04-25T11:29:09;9.00;1.00
20650;DHT22;10484;48.736;9.332;2023-04-25T11:31:35;8.90;1.00
20650;DHT22;10484;48.736;9.332;2023-04-25T11:34:01;8.90;1.00
20650;DHT22;10484;48.736;9.332;2023-04-25T11:36:26;8.90;1.00
20650;DHT22;10484;48.736;9.332;2023-04-25T11:38:53;8.90;1.00
20650;DHT22;10484;48.736;9.332;2023-04-25T11:41:19;8.90;1.00
20650;DHT22;10484;48.736;9.332;2023-04-25T11:43:45;8.90;1.00
20650;DHT22;10484;48.736;9.332;2023-04-25T11:46:11;8.90;1.00
20650;DHT22;10484;48.736;9.332;2023-04-25T11:48:40;8.90;1.00
20650;DHT22;10484;48.736;9.332;2023-04-25T11:51:06;8.90;1.00
20650;DHT22;10484;48.736;9.332;2023-04-25T11:53:32;8.90;1.00
20650;DHT22;10484;48.736;9.332;2023-04-25T11:55:58;8.90;1.00
20650;DHT22;10484;48.736;9.332;2023-04-25T11:58:23;8.90;1.00
20650;DHT22;10484;48.736;9.332;2023-04-25T12:00:49;8.90;1.00
20650;DHT22;10484;48.736;9.332;2023-04-25T12:03:14;8.90;1.00
20650;DHT22;10484;48.736;9.332;2023-04-25T12:05:40;9.00;1.00
20650;DHT22;10484;48.736;9.332;2023-04-25T12:08:10;9.00;1.00
20650;DHT22;10484;48.736;9.332;2023-04-25T12:10:38;9.10;1.00
20650;DHT22;10484;48.736;9.332;2023-04-25T12:15:43;9.10;1.00
20650;DHT22;10484;48.736;9.332;2023-04-25T12:18:09;9.10;1.00
20650;DHT22;10484;48.736;9.332;2023-04-25T12:20:35;9.10;1.00
20650;DHT22;10484;48.736;9.332;2023-04-25T12:23:05;9.00;1.00
20650;DHT22;10484;48.736;9.332;2023-04-25T12:25:37;9.00;1.00
20650;DHT22;10484;48.736;9.332;2023-04-25T12:33:25;9.10;1.00
20650;DHT22;10484;48.736;9.332;2023-04-25T12:35:52;9.20;1.00
20650;DHT22;10484;48.736;9.332;2023-04-25T12:38:29;9.10;1.00
20650;DHT22;10484;48.736;9.332;2023-04-25T12:40:56;9.10;1.00
20650;DHT22;10484;48.736;9.332;2023-04-25T12:43:22;9.20;1.00
20650;DHT22;10484;48.736;9.332;2023-04-25T12:45:49;9.20;1.00
20650;DHT22;10484;48.736;9.332;2023-04-25T12:48:16;9.20;1.00
20650;DHT22;10484;48.736;9.332;2023-04-25T12:50:42;9.30;1.00
20650;DHT22;10484;48.736;9.332;2023-04-25T12:53:08;9.30;1.00
20650;DHT22;10484;48.736;9.332;2023-04-25T12:55:33;9.40;1.00
20650;DHT22;10484;48.736;9.332;2023-04-25T12:57:59;9.40;1.00
20650;DHT22;10484;48.736;9.332;2023-04-25T13:00:25;9.40;1.00
20650;DHT22;10484;48.736;9.332;2023-04-25T13:02:51;9.40;1.00
20650;DHT22;10484;48.736;9.332;2023-04-25T13:05:17;9.50;1.00
20650;DHT22;10484;48.736;9.332;2023-04-25T13:07:42;9.50;1.00
20650;DHT22;10484;48.736;9.332;2023-04-25T13:10:08;9.50;1.00
20650;DHT22;10484;48.736;9.332;2023-04-25T13:12:34;9.50;1.00
20650;DHT22;10484;48.736;9.332;2023-04-25T13:14:59;9.50;1.00
20650;DHT22;10484;48.736;9.332;2023-04-25T13:17:25;9.60;1.00
20650;DHT22;10484;48.736;9.332;2023-04-25T13:19:50;9.60;1.00
20650;DHT22;10484;48.736;9.332;2023-04-25T13:22:16;9.60;1.00
20650;DHT22;10484;48.736;9.332;2023-04-25T13:24:46;9.60;1.00
20650;DHT22;10484;48.736;9.332;2023-04-25T13:27:12;9.60;1.00
20650;DHT22;10484;48.736;9.332;2023-04-25T13:29:38;9.70;1.00
20650;DHT22;10484;48.736;9.332;2023-04-25T13:32:06;9.70;1.00
20650;DHT22;10484;48.736;9.332;2023-04-25T13:34:32;9.80;1.00
20650;DHT22;10484;48.736;9.332;2023-04-25T13:36:57;9.80;1.00
20650;DHT22;10484;48.736;9.332;2023-04-25T13:39:23;9.80;1.00
20650;DHT22;10484;48.736;9.332;2023-04-25T13:41:49;9.90;1.00
20650;DHT22;10484;48.736;9.332;2023-04-25T13:44:14;9.90;1.00
20650;DHT22;10484;48.736;9.332;2023-04-25T13:46:40;9.90;1.00
20650;DHT22;10484;48.736;9.332;2023-04-25T13:49:06;9.90;1.00
20650;DHT22;10484;48.736;9.332;2023-04-25T13:51:31;10.00;1.00
20650;DHT22;10484;48.736;9.332;2023-04-25T13:53:57;10.00;1.00
20650;DHT22;10484;48.736;9.332;2023-04-25T13:56:23;10.00;1.00
20650;DHT22;10484;48.736;9.332;2023-04-25T13:58:50;10.00;1.00
20650;DHT22;10484;48.736;9.332;2023-04-25T14:01:17;10.10;1.00
20650;DHT22;10484;48.736;9.332;2023-04-25T14:03:43;10.10;1.00
20650;DHT22;10484;48.736;9.332;2023-04-25T14:06:08;10.20;1.00
20650;DHT22;10484;48.736;9.332;2023-04-25T14:08:34;10.20;1.00
20650;DHT22;10484;48.736;9.332;2023-04-25T14:11:00;10.20;1.00
20650;DHT22;10484;48.736;9.332;2023-04-25T14:13:26;10.20;1.00
20650;DHT22;10484;48.736;9.332;2023-04-25T14:15:52;10.20;1.00
20650;DHT22;10484;48.736;9.332;2023-04-25T14:18:18;10.30;1.00
20650;DHT22;10484;48.736;9.332;2023-04-25T14:20:44;10.30;1.00
20650;DHT22;10484;48.736;9.332;2023-04-25T14:23:10;10.20;1.00
20650;DHT22;10484;48.736;9.332;2023-04-25T14:25:35;10.30;1.00
20650;DHT22;10484;48.736;9.332;2023-04-25T14:28:02;10.30;1.00
20650;DHT22;10484;48.736;9.332;2023-04-25T14:30:27;10.30;1.00
20650;DHT22;10484;48.736;9.332;2023-04-25T14:32:54;10.30;1.00
20650;DHT22;10484;48.736;9.332;2023-04-25T14:35:19;10.30;1.00
20650;DHT22;10484;48.736;9.332;2023-04-25T14:37:46;10.30;1.00
20650;DHT22;10484;48.736;9.332;2023-04-25T14:40:12;10.30;1.00
20650;DHT22;10484;48.736;9.332;2023-04-25T14:42:39;10.40;1.00
20650;DHT22;10484;48.736;9.332;2023-04-25T14:45:06;10.40;1.00
20650;DHT22;10484;48.736;9.332;2023-04-25T14:47:32;10.50;1.00
20650;DHT22;10484;48.736;9.332;2023-04-25T14:49:58;10.50;1.00
20650;DHT22;10484;48.736;9.332;2023-04-25T14:52:24;10.50;1.00
20650;DHT22;10484;48.736;9.332;2023-04-25T14:54:50;10.60;1.00
20650;DHT22;10484;48.736;9.332;2023-04-25T14:57:16;10.60;1.00
20650;DHT22;10484;48.736;9.332;2023-04-25T14:59:42;10.70;1.00
20650;DHT22;10484;48.736;9.332;2023-04-25T15:02:07;10.80;1.00
20650;DHT22;10484;48.736;9.332;2023-04-25T15:04:33;10.80;1.00
20650;DHT22;10484;48.736;9.332;2023-04-25T15:06:59;10.80;1.00
20650;DHT22;10484;48.736;9.332;2023-04-25T15:09:24;10.90;1.00
20650;DHT22;10484;48.736;9.332;2023-04-25T15:11:50;10.80;1.00
20650;DHT22;10484;48.736;9.332;2023-04-25T15:14:19;10.90;1.00
20650;DHT22;10484;48.736;9.332;2023-04-25T15:16:45;10.90;1.00
20650;DHT22;10484;48.736;9.332;2023-04-25T15:19:11;10.90;1.00
20650;DHT22;10484;48.736;9.332;2023-04-25T15:21:36;10.90;1.00
20650;DHT22;10484;48.736;9.332;2023-04-25T15:24:02;10.90;1.00
20650;DHT22;10484;48.736;9.332;2023-04-25T15:26:28;10.90;1.00
20650;DHT22;10484;48.736;9.332;2023-04-25T15:28:53;11.00;1.00
20650;DHT22;10484;48.736;9.332;2023-04-25T15:31:19;11.00;1.00
20650;DHT22;10484;48.736;9.332;2023-04-25T15:33:45;11.00;1.00
20650;DHT22;10484;48.736;9.332;2023-04-25T15:36:11;11.10;1.00
20650;DHT22;10484;48.736;9.332;2023-04-25T15:38:36;11.10;1.00
20650;DHT22;10484;48.736;9.332;2023-04-25T15:41:02;11.20;1.00
20650;DHT22;10484;48.736;9.332;2023-04-25T15:43:28;11.20;1.00
20650;DHT22;10484;48.736;9.332;2023-04-25T15:45:54;11.10;1.00
20650;DHT22;10484;48.736;9.332;2023-04-25T15:48:20;11.00;1.00
20650;DHT22;10484;48.736;9.332;2023-04-25T15:50:46;11.00;1.00
20650;DHT22;10484;48.736;9.332;2023-04-25T15:53:11;10.90;1.00
20650;DHT22;10484;48.736;9.332;2023-04-25T15:55:38;10.90;1.00
20650;DHT22;10484;48.736;9.332;2023-04-25T15:58:04;10.80;1.00
20650;DHT22;10484;48.736;9.332;2023-04-25T16:00:29;10.90;1.00
20650;DHT22;10484;48.736;9.332;2023-04-25T16:02:56;10.90;1.00
20650;DHT22;10484;48.736;9.332;2023-04-25T16:05:21;11.00;1.00
20650;DHT22;10484;48.736;9.332;2023-04-25T16:07:47;11.00;1.00
20650;DHT22;10484;48.736;9.332;2023-04-25T16:10:14;11.00;1.00